Home   Weather   Pakistan   Lahore   Past weeks
Flag for Pakistan

Past Weather in Lahore, Pakistan — Yesterday and Last 2 Weeks

Currently: 81 °F. Clear. (Weather station: Lahore Airport, Pakistan). See more current weather

Past Weather in Lahore — Graph

°F

Lahore Temperature Yesterday

Maximum temperature yesterday: 97 °F (at 1:55 pm)
Minimum temperature yesterday: 75 °F (at 6:25 am)
Average temperature yesterday: 87 °F

High & Low Weather Summary for the Past Weeks

 TemperatureHumidityPressure
High97 °F (Sep 18, 3:25 pm)94% (Sep 23, 1:55 pm)29.89 "Hg (Sep 23, 1:55 pm)
Low73 °F (Sep 24, 6:25 am)28% (Oct 2, 12:25 pm)29.56 "Hg (Sep 25, 3:25 am)
Average84 °F68%29.70 "Hg
* Reported Sep 18 2:25 am — Oct 3 2:25 am, Lahore. Weather by CustomWeather, © 2022

Note: Actual official high and low records may vary slightly from our data, if they occured in-between our weather recording intervals... More about our weather records

Lahore Weather History for the Previous 24 Hours

Scroll right to see more
 ConditionsComfort  
Time TempWeatherWind HumidityBarometerVisibility
2:25 am
Mon, Oct 3
81 °FClear.No wind62%29.71 "Hg2 mi
1:55 am81 °FClear.No wind62%29.71 "Hg2 mi
1:25 am81 °FClear.No wind62%29.71 "Hg2 mi
12:55 am81 °FClear.No wind62%29.71 "Hg2 mi
12:25 am82 °FClear.No wind58%29.71 "Hg2 mi
11:55 pm
Sun, Oct 2
82 °FClear.No wind58%29.71 "Hg3 mi
11:25 pm84 °FClear.No wind51%29.71 "Hg3 mi
10:55 pm84 °FClear.No wind51%29.71 "Hg3 mi
10:25 pm86 °FClear.No wind49%29.71 "Hg3 mi
9:55 pm86 °FClear.No wind49%29.71 "Hg3 mi
9:25 pm86 °FHaze.No wind49%29.71 "Hg3 mi
8:55 pm86 °FHaze.No wind49%29.71 "Hg3 mi
8:25 pm88 °FHaze.No wind43%29.68 "Hg3 mi
7:55 pm88 °FClear.5 mph43%29.68 "Hg4 mi
7:25 pm90 °FClear.3 mph38%29.68 "Hg4 mi
6:55 pm90 °FClear.5 mph38%29.68 "Hg4 mi
6:25 pm91 °FClear.5 mph34%29.68 "Hg4 mi
5:55 pm93 °FClear.5 mph32%29.68 "Hg4 mi
5:25 pm95 °FClear.9 mph30%29.68 "Hg4 mi
4:55 pm97 °FClear.7 mph28%29.68 "Hg4 mi
4:25 pm97 °FClear.12 mph28%29.68 "Hg4 mi
3:55 pm97 °FClear.9 mph28%29.68 "Hg4 mi
3:25 pm97 °FClear.12 mph28%29.68 "Hg4 mi
2:55 pm97 °FClear.14 mph28%29.68 "Hg4 mi
2:25 pm97 °FClear.12 mph28%29.71 "Hg4 mi
1:55 pm97 °FClear.20 mph28%29.71 "Hg4 mi
1:25 pm95 °FClear.15 mph28%29.71 "Hg4 mi
12:25 pm95 °FHaze.15 mph28%29.74 "Hg3 mi
11:55 am93 °FHaze.14 mph30%29.74 "Hg3 mi
11:25 am93 °FHaze.8 mph36%29.77 "Hg3 mi
10:55 am93 °FHaze.12 mph36%29.77 "Hg3 mi
9:55 am88 °FHaze.6 mph49%29.77 "Hg3 mi
9:25 am86 °FClear.No wind62%29.77 "Hg2 mi
8:55 am86 °FClear.5 mph62%29.77 "Hg2 mi
8:25 am82 °FClear.3 mph74%29.77 "Hg2 mi
7:55 am79 °FFog.5 mph84%29.74 "Hg2 mi
7:25 am77 °FFog.5 mph83%29.71 "Hg2 mi
6:55 am77 °FFog.5 mph89%29.71 "Hg1 mi
6:25 am75 °FFog.5 mph89%29.71 "Hg2 mi
4:25 am79 °FClear.No wind79%29.68 "Hg2 mi
3:25 am79 °FClear.No wind79%29.68 "Hg2 mi
Weather by CustomWeather, © 2022

See weather overview